Estaciones cercanas a Meteocoruna.es

 

LECO - La Coruna/Alvedro, Espana
Distancia desde EA1HNP Meteo: NNE 12km
Actualización: 03/07/2022 10:30
Cubierto
Cubierto
 Viento del NNE
Viento: NNE 17 km/h
Temperatura: 18°C
Rocío: 14°C
Humedad: 78%
Barómetro: 1020 hPa
Nubes: Cubierto
Visibilidad: 10 km
Detalle de nubes: Poco nuboso 427 m
Cubierto 610 m
2022/07/03 08:30 LECO 030830Z 02009KT 320V070 9999 FEW014 OVC020 18/14 Q1020 NOSIG
LEST - Santiago/Labacolla, Espana
Distancia desde EA1HNP Meteo: S 32km
Actualización: 03/07/2022 10:30
Muy nuboso
Muy nuboso
 Viento del NNE
Viento: NNE 17 km/h
Temperatura: 16°C
Rocío: 14°C
Humedad: 88%
Barómetro: 1020 hPa
Nubes: Muy nuboso
Visibilidad: 10 km
Detalle de nubes: Poco nuboso 335 m
Muy nuboso 518 m
2022/07/03 08:30 LEST 030830Z 03009KT 350V060 9999 FEW011 BKN017 16/14 Q1020 NOSIG